createdAt,value
2022-10-13T00:00:07.207Z,74.78
2022-10-13T00:01:34.084Z,74.97
2022-10-13T00:02:36.300Z,74.90
2022-10-13T00:03:42.786Z,74.95
2022-10-13T00:04:52.391Z,75.06
2022-10-13T00:05:58.530Z,75.07
2022-10-13T00:07:02.032Z,74.92
2022-10-13T00:08:09.873Z,75.05
2022-10-13T00:09:20.327Z,75.08
2022-10-13T00:10:22.569Z,75.06
2022-10-13T00:11:29.719Z,74.88
2022-10-13T00:12:40.879Z,75.23
2022-10-13T00:13:44.184Z,75.03
2022-10-13T00:14:48.188Z,74.86
2022-10-13T00:15:50.139Z,74.83
2022-10-13T00:16:52.260Z,74.84
2022-10-13T00:17:53.995Z,74.84
2022-10-13T00:18:56.296Z,74.99
2022-10-13T00:20:05.094Z,74.91
2022-10-13T00:21:13.675Z,74.97
2022-10-13T00:22:15.735Z,74.77
2022-10-13T00:23:19.616Z,74.99
2022-10-13T00:24:21.628Z,74.91
2022-10-13T00:25:25.594Z,74.91
2022-10-13T00:26:27.405Z,74.93
2022-10-13T00:27:29.272Z,74.92
2022-10-13T00:28:31.277Z,75.01
2022-10-13T00:29:33.045Z,75.25
2022-10-13T00:30:35.982Z,75.12
2022-10-13T00:31:37.802Z,75.29
2022-10-13T00:32:41.218Z,75.27
2022-10-13T00:33:43.365Z,75.20
2022-10-13T00:34:45.374Z,75.26
2022-10-13T00:35:48.856Z,75.22
2022-10-13T00:36:52.704Z,75.27
2022-10-13T00:37:54.571Z,75.34
2022-10-13T00:38:56.971Z,75.30
2022-10-13T00:39:59.187Z,75.23
2022-10-13T00:41:01.180Z,75.33
2022-10-13T00:42:04.037Z,75.26
2022-10-13T00:43:16.896Z,75.23
2022-10-13T00:44:56.034Z,75.31
2022-10-13T00:45:57.919Z,75.26
2022-10-13T00:47:00.026Z,75.22
2022-10-13T00:48:02.258Z,75.32
2022-10-13T00:49:13.920Z,75.24
2022-10-13T00:50:25.308Z,75.43
2022-10-13T00:51:34.294Z,75.14
2022-10-13T00:52:39.783Z,75.32
2022-10-13T00:53:44.245Z,75.46
2022-10-13T00:54:49.440Z,75.32
2022-10-13T00:55:53.594Z,75.54
2022-10-13T00:56:57.297Z,75.42
2022-10-13T00:58:05.526Z,75.74
2022-10-13T00:59:22.365Z,75.56
2022-10-13T01:00:25.078Z,75.60
2022-10-13T01:01:27.194Z,75.69
2022-10-13T01:02:32.275Z,75.44
2022-10-13T01:03:34.856Z,75.26
2022-10-13T01:04:41.591Z,75.35
2022-10-13T01:05:44.304Z,75.30
2022-10-13T01:06:49.404Z,75.17
2022-10-13T01:07:53.200Z,75.18
2022-10-13T01:08:54.894Z,75.27
2022-10-13T01:09:57.831Z,75.33
2022-10-13T01:11:15.465Z,75.49
2022-10-13T01:12:24.279Z,75.46
2022-10-13T01:13:58.329Z,75.56
2022-10-13T01:15:11.700Z,75.69
2022-10-13T01:16:40.617Z,75.80
2022-10-13T01:18:05.786Z,75.58
2022-10-13T01:19:37.144Z,75.79
2022-10-13T01:20:47.918Z,75.77
2022-10-13T01:22:07.221Z,75.78
2022-10-13T01:23:23.525Z,75.67
2022-10-13T01:24:28.199Z,75.71
2022-10-13T01:25:41.904Z,75.93
2022-10-13T01:26:55.999Z,75.78
2022-10-13T01:28:03.949Z,75.89
2022-10-13T01:29:47.406Z,76.04
2022-10-13T01:30:59.996Z,75.87
2022-10-13T01:32:11.649Z,75.96
2022-10-13T01:33:21.966Z,75.86
2022-10-13T01:34:36.885Z,75.89
2022-10-13T01:36:02.860Z,75.80
2022-10-13T01:37:30.655Z,75.96
2022-10-13T01:38:38.285Z,76.02
2022-10-13T01:39:44.995Z,75.98
2022-10-13T01:41:12.950Z,75.97
2022-10-13T01:42:25.434Z,75.82
2022-10-13T01:43:43.955Z,75.74
2022-10-13T01:44:51.179Z,75.71
2022-10-13T01:46:09.615Z,75.79
2022-10-13T01:47:14.939Z,75.66
2022-10-13T01:48:18.904Z,75.74
2022-10-13T01:49:27.939Z,75.74
2022-10-13T01:50:31.994Z,75.64
2022-10-13T01:51:34.989Z,75.45
2022-10-13T01:52:38.783Z,75.58
2022-10-13T01:53:42.082Z,75.60
2022-10-13T01:54:48.849Z,75.67
2022-10-13T01:55:51.594Z,75.57
2022-10-13T01:57:02.589Z,75.53
2022-10-13T01:58:04.669Z,75.60
2022-10-13T01:59:12.724Z,75.63
2022-10-13T02:00:20.873Z,75.74
2022-10-13T02:01:40.599Z,75.65
2022-10-13T02:03:04.186Z,75.87
2022-10-13T02:04:09.174Z,75.72
2022-10-13T02:05:20.976Z,75.77
2022-10-13T02:06:26.786Z,75.85
2022-10-13T02:07:40.639Z,75.93
2022-10-13T02:08:53.626Z,75.86
2022-10-13T02:10:20.214Z,75.80
2022-10-13T02:11:24.115Z,75.88
2022-10-13T02:12:51.004Z,75.94
2022-10-13T02:14:05.239Z,75.95
2022-10-13T02:15:11.961Z,76.02
2022-10-13T02:16:15.494Z,76.09
2022-10-13T02:17:17.764Z,76.11
2022-10-13T02:18:29.849Z,76.05
2022-10-13T02:19:37.231Z,76.05
2022-10-13T02:20:41.623Z,76.02
2022-10-13T02:21:44.889Z,76.03
2022-10-13T02:22:50.859Z,75.97
2022-10-13T02:23:52.704Z,76.23
2022-10-13T02:24:55.269Z,76.06
2022-10-13T02:25:59.043Z,76.22
2022-10-13T02:27:01.545Z,76.10
2022-10-13T02:28:04.861Z,76.07
2022-10-13T02:29:09.446Z,76.28
2022-10-13T02:30:20.524Z,76.24
2022-10-13T02:31:23.160Z,76.43
2022-10-13T02:32:25.606Z,76.02
2022-10-13T02:33:28.504Z,76.20
2022-10-13T02:34:30.467Z,76.12
2022-10-13T02:35:33.155Z,76.11
2022-10-13T02:36:39.662Z,76.25
2022-10-13T02:37:41.474Z,76.17
2022-10-13T02:38:43.899Z,76.33
2022-10-13T02:39:45.860Z,76.22
2022-10-13T02:40:48.870Z,76.21
2022-10-13T02:41:50.645Z,76.33
2022-10-13T02:42:52.659Z,76.35
2022-10-13T02:43:54.696Z,76.43
2022-10-13T02:44:59.116Z,76.35
2022-10-13T02:46:01.113Z,76.43
2022-10-13T02:47:03.146Z,76.52
2022-10-13T02:48:07.554Z,76.46
2022-10-13T02:49:10.322Z,76.51
2022-10-13T02:50:12.634Z,76.40
2022-10-13T02:51:15.919Z,76.45
2022-10-13T02:52:17.940Z,76.38
2022-10-13T02:53:20.034Z,76.55
2022-10-13T02:54:21.836Z,76.54
2022-10-13T02:55:23.686Z,76.38
2022-10-13T02:56:32.526Z,76.39
2022-10-13T02:57:35.314Z,76.37
2022-10-13T02:58:37.050Z,76.27
2022-10-13T02:59:38.871Z,76.39
2022-10-13T03:00:40.747Z,76.34
2022-10-13T03:01:44.015Z,76.23
2022-10-13T03:02:46.128Z,76.45
2022-10-13T03:03:47.904Z,76.26
2022-10-13T03:04:52.464Z,76.32
2022-10-13T03:05:54.214Z,76.37
2022-10-13T03:06:56.640Z,76.32
2022-10-13T03:07:58.705Z,76.47
2022-10-13T03:09:00.576Z,76.36
2022-10-13T03:10:03.419Z,76.39
2022-10-13T03:11:06.796Z,76.36
2022-10-13T03:12:08.870Z,76.23
2022-10-13T03:13:10.615Z,76.16
2022-10-13T03:14:12.699Z,76.27
2022-10-13T03:15:15.002Z,76.22
2022-10-13T03:16:16.809Z,76.30
2022-10-13T03:17:18.660Z,76.26
2022-10-13T03:18:20.678Z,76.37
2022-10-13T03:19:23.309Z,76.63
2022-10-13T03:20:25.227Z,76.46
2022-10-13T03:21:27.026Z,76.67
2022-10-13T03:22:31.620Z,76.66
2022-10-13T03:23:33.861Z,76.68
2022-10-13T03:24:35.698Z,76.72
2022-10-13T03:25:37.766Z,76.72
2022-10-13T03:26:39.506Z,76.83
2022-10-13T03:27:41.324Z,77.11
2022-10-13T03:28:43.384Z,76.95
2022-10-13T03:29:45.354Z,76.99
2022-10-13T03:30:47.209Z,77.03
2022-10-13T03:31:49.182Z,76.94
2022-10-13T03:32:51.018Z,77.09
2022-10-13T03:33:52.889Z,77.94
2022-10-13T03:34:54.764Z,78.71
2022-10-13T03:36:01.412Z,78.50
2022-10-13T03:37:03.634Z,78.54
2022-10-13T03:38:09.549Z,78.67
2022-10-13T03:39:12.979Z,78.61
2022-10-13T03:40:15.071Z,78.44
2022-10-13T03:41:18.190Z,78.17
2022-10-13T03:42:24.566Z,78.30
2022-10-13T03:43:26.429Z,78.60
2022-10-13T03:44:28.690Z,78.32
2022-10-13T03:45:30.866Z,78.40
2022-10-13T03:46:33.298Z,78.33
2022-10-13T03:47:44.601Z,78.60
2022-10-13T03:48:47.600Z,78.52
2022-10-13T03:49:49.689Z,78.63
2022-10-13T03:50:55.269Z,78.69
2022-10-13T03:51:57.102Z,78.66
2022-10-13T03:52:59.396Z,78.82
2022-10-13T03:54:01.250Z,78.83
2022-10-13T03:55:03.471Z,78.89
2022-10-13T03:56:07.276Z,78.82
2022-10-13T03:57:10.394Z,79.22
2022-10-13T03:58:13.404Z,80.25
2022-10-13T03:59:18.114Z,79.41
2022-10-13T04:00:20.329Z,79.35
2022-10-13T04:01:27.099Z,79.37
2022-10-13T04:02:28.965Z,79.64
2022-10-13T04:03:33.951Z,79.83
2022-10-13T04:04:37.515Z,79.79
2022-10-13T04:05:40.126Z,79.69
2022-10-13T04:06:44.654Z,79.73
2022-10-13T04:07:46.449Z,79.90
2022-10-13T04:08:54.061Z,79.80
2022-10-13T04:09:55.800Z,79.93
2022-10-13T04:11:11.883Z,80.27
2022-10-13T04:12:18.386Z,80.26
2022-10-13T04:13:22.526Z,80.05
2022-10-13T04:14:26.746Z,79.96
2022-10-13T04:15:37.339Z,80.14
2022-10-13T04:16:39.982Z,80.02
2022-10-13T04:17:41.825Z,80.15
2022-10-13T04:18:45.297Z,80.15
2022-10-13T04:19:47.086Z,80.07
2022-10-13T04:20:48.834Z,80.13
2022-10-13T04:21:51.066Z,80.21
2022-10-13T04:22:52.818Z,80.22
2022-10-13T04:23:58.791Z,80.11
2022-10-13T04:25:00.579Z,80.05
2022-10-13T04:26:04.077Z,80.31
2022-10-13T04:27:05.936Z,80.19
2022-10-13T04:28:07.690Z,80.13
2022-10-13T04:29:12.005Z,80.30
2022-10-13T04:30:17.095Z,80.60
2022-10-13T04:31:21.489Z,80.44
2022-10-13T04:32:25.210Z,80.81
2022-10-13T04:33:27.181Z,80.93
2022-10-13T04:34:29.043Z,80.73
2022-10-13T04:35:31.413Z,80.77
2022-10-13T04:36:33.275Z,81.03
2022-10-13T04:37:35.344Z,81.22
2022-10-13T04:38:38.017Z,81.02
2022-10-13T04:39:39.931Z,81.44
2022-10-13T04:40:41.744Z,81.20
2022-10-13T04:41:43.653Z,81.31
2022-10-13T04:42:45.544Z,81.12
2022-10-13T04:43:51.576Z,81.15
2022-10-13T04:44:53.453Z,81.41
2022-10-13T04:46:06.920Z,81.55
2022-10-13T04:47:09.085Z,81.71
2022-10-13T04:48:10.972Z,81.45
2022-10-13T04:49:16.631Z,81.62
2022-10-13T04:50:19.369Z,81.88
2022-10-13T04:51:24.391Z,82.32
2022-10-13T04:52:26.338Z,82.37
2022-10-13T04:53:30.857Z,82.37
2022-10-13T04:54:33.915Z,82.18
2022-10-13T04:55:36.710Z,82.14
2022-10-13T04:56:38.605Z,82.28
2022-10-13T04:57:40.402Z,82.30
2022-10-13T04:58:44.059Z,82.30
2022-10-13T04:59:46.221Z,82.47
2022-10-13T05:00:48.552Z,82.59
2022-10-13T05:01:50.516Z,82.59
2022-10-13T05:02:53.250Z,82.54
2022-10-13T05:03:58.499Z,82.40
2022-10-13T05:05:00.422Z,82.55
2022-10-13T05:06:02.211Z,82.80
2022-10-13T05:07:17.610Z,82.98
2022-10-13T05:08:22.059Z,82.72
2022-10-13T05:09:24.032Z,82.67
2022-10-13T05:10:25.991Z,82.65
2022-10-13T05:11:28.702Z,82.53
2022-10-13T05:12:30.425Z,82.71
2022-10-13T05:13:34.854Z,83.13
2022-10-13T05:14:36.668Z,82.99
2022-10-13T05:15:43.015Z,83.14
2022-10-13T05:16:44.709Z,83.72
2022-10-13T05:17:49.596Z,83.36
2022-10-13T05:18:54.849Z,83.34
2022-10-13T05:19:56.844Z,83.29
2022-10-13T05:21:06.508Z,83.14
2022-10-13T05:22:08.765Z,83.33
2022-10-13T05:23:10.671Z,83.25
2022-10-13T05:24:13.150Z,83.75
2022-10-13T05:25:16.190Z,83.64
2022-10-13T05:26:18.203Z,83.69
2022-10-13T05:27:20.875Z,83.61
2022-10-13T05:28:22.687Z,83.57
2022-10-13T05:29:24.607Z,83.50
2022-10-13T05:30:26.611Z,83.54
2022-10-13T05:31:29.758Z,83.57
2022-10-13T05:32:35.395Z,83.62
2022-10-13T05:33:37.469Z,83.57
2022-10-13T05:34:39.221Z,83.74
2022-10-13T05:35:43.225Z,83.79
2022-10-13T05:36:44.951Z,83.94
2022-10-13T05:37:46.707Z,83.97
2022-10-13T05:38:53.136Z,83.89
2022-10-13T05:39:54.974Z,84.03
2022-10-13T05:41:02.487Z,83.94
2022-10-13T05:42:04.639Z,83.89
2022-10-13T05:43:06.434Z,83.87
2022-10-13T05:44:09.315Z,83.73
2022-10-13T05:45:17.868Z,83.89
2022-10-13T05:46:23.716Z,83.90
2022-10-13T05:47:30.528Z,84.00
2022-10-13T05:48:32.335Z,83.98
2022-10-13T05:49:35.932Z,84.28
2022-10-13T05:50:38.095Z,84.10
2022-10-13T05:51:47.776Z,84.18
2022-10-13T05:52:51.348Z,84.06
2022-10-13T05:54:00.296Z,84.24
2022-10-13T05:55:06.113Z,84.37
2022-10-13T05:56:14.051Z,84.31
2022-10-13T05:57:23.625Z,84.65
2022-10-13T05:58:25.555Z,84.90
2022-10-13T05:59:32.009Z,84.86
2022-10-13T06:00:34.179Z,84.67
2022-10-13T06:01:39.198Z,84.76
2022-10-13T06:03:04.312Z,84.82
2022-10-13T06:04:14.859Z,85.10
2022-10-13T06:05:19.637Z,84.92
2022-10-13T06:06:29.139Z,84.88
2022-10-13T06:07:33.140Z,84.90
2022-10-13T06:08:36.630Z,84.64
2022-10-13T06:09:39.735Z,84.60
2022-10-13T06:10:42.970Z,84.59
2022-10-13T06:11:45.431Z,84.65
2022-10-13T06:12:47.728Z,84.70
2022-10-13T06:13:52.681Z,85.23
2022-10-13T06:14:55.076Z,84.90
2022-10-13T06:15:59.689Z,85.15
2022-10-13T06:17:01.716Z,85.02
2022-10-13T06:18:07.608Z,85.11
2022-10-13T06:19:09.454Z,85.00
2022-10-13T06:20:11.483Z,84.92
2022-10-13T06:21:13.364Z,85.00
2022-10-13T06:22:15.117Z,84.80
2022-10-13T06:23:17.171Z,84.87
2022-10-13T06:24:18.961Z,84.85
2022-10-13T06:25:20.817Z,84.83
2022-10-13T06:26:22.655Z,84.86
2022-10-13T06:27:24.470Z,84.73
2022-10-13T06:28:28.381Z,85.00
2022-10-13T06:29:30.184Z,84.81
2022-10-13T06:30:32.300Z,84.80
2022-10-13T06:31:34.303Z,84.73
2022-10-13T06:32:36.123Z,84.81
2022-10-13T06:33:37.939Z,84.77
2022-10-13T06:34:39.838Z,84.85
2022-10-13T06:35:44.896Z,84.83
2022-10-13T06:36:46.828Z,85.02
2022-10-13T06:37:52.640Z,84.75
2022-10-13T06:38:56.796Z,84.79
2022-10-13T06:39:58.750Z,85.05
2022-10-13T06:41:04.837Z,84.96
2022-10-13T06:42:07.984Z,85.49
2022-10-13T06:43:12.965Z,85.33
2022-10-13T06:44:19.690Z,85.27
2022-10-13T06:45:21.655Z,85.07
2022-10-13T06:46:23.441Z,85.15
2022-10-13T06:47:25.328Z,85.37
2022-10-13T06:48:29.935Z,85.27
2022-10-13T06:49:39.905Z,85.38
2022-10-13T06:50:48.419Z,85.29
2022-10-13T06:51:50.593Z,85.39
2022-10-13T06:52:52.441Z,85.46
2022-10-13T06:53:57.081Z,85.38
2022-10-13T06:55:00.854Z,85.45
2022-10-13T06:56:07.274Z,85.61
2022-10-13T06:57:08.993Z,85.55
2022-10-13T06:58:10.926Z,85.51
2022-10-13T06:59:12.840Z,85.50
2022-10-13T07:00:18.142Z,85.50
2022-10-13T07:01:21.503Z,85.57
2022-10-13T07:02:23.435Z,85.50
2022-10-13T07:03:25.842Z,85.61
2022-10-13T07:04:27.820Z,85.58
2022-10-13T07:05:32.571Z,85.57
2022-10-13T07:06:34.585Z,85.63
2022-10-13T07:07:36.530Z,85.65
2022-10-13T07:08:38.311Z,85.66
2022-10-13T07:09:40.442Z,85.57
2022-10-13T07:10:46.329Z,85.61
2022-10-13T07:11:49.170Z,85.48
2022-10-13T07:12:50.928Z,85.59
2022-10-13T07:13:53.698Z,85.77
2022-10-13T07:14:56.960Z,85.69
2022-10-13T07:15:58.961Z,85.72
2022-10-13T07:17:00.930Z,85.88
2022-10-13T07:18:02.903Z,85.83
2022-10-13T07:19:05.625Z,85.84
2022-10-13T07:20:08.967Z,85.88
2022-10-13T07:21:10.872Z,85.88
2022-10-13T07:22:12.742Z,86.05
2022-10-13T07:23:14.544Z,85.95
2022-10-13T07:24:16.449Z,85.93
2022-10-13T07:25:19.135Z,85.98
2022-10-13T07:26:20.919Z,85.79
2022-10-13T07:27:24.141Z,85.75
2022-10-13T07:28:26.741Z,85.88
2022-10-13T07:29:28.596Z,85.96
2022-10-13T07:30:32.574Z,85.88
2022-10-13T07:31:34.429Z,86.11
2022-10-13T07:32:36.380Z,86.10
2022-10-13T07:33:43.699Z,86.12
2022-10-13T07:34:45.661Z,86.20
2022-10-13T07:35:47.722Z,86.38
2022-10-13T07:36:49.721Z,86.24
2022-10-13T07:37:54.512Z,86.15
2022-10-13T07:38:56.437Z,86.01
2022-10-13T07:39:59.999Z,86.03
2022-10-13T07:41:05.824Z,85.98
2022-10-13T07:42:07.700Z,86.03
2022-10-13T07:43:09.655Z,86.07
2022-10-13T07:44:11.608Z,86.03
2022-10-13T07:45:13.936Z,86.42
2022-10-13T07:46:15.785Z,86.33
2022-10-13T07:47:17.783Z,86.31
2022-10-13T07:48:19.896Z,86.33
2022-10-13T07:49:23.336Z,86.26
2022-10-13T07:50:25.156Z,86.28
2022-10-13T07:51:26.995Z,85.88
2022-10-13T07:52:29.054Z,86.03
2022-10-13T07:53:31.011Z,85.81
2022-10-13T07:54:32.893Z,85.75
2022-10-13T07:55:35.834Z,85.60
2022-10-13T07:56:37.885Z,85.77
2022-10-13T07:57:39.885Z,85.85
2022-10-13T07:58:46.549Z,86.05
2022-10-13T07:59:48.343Z,85.99
2022-10-13T08:00:59.568Z,85.76
2022-10-13T08:02:01.813Z,86.14
2022-10-13T08:03:03.849Z,85.88
2022-10-13T08:04:06.479Z,86.03
2022-10-13T08:05:08.480Z,85.99
2022-10-13T08:06:10.475Z,85.76
2022-10-13T08:07:15.054Z,85.93
2022-10-13T08:08:16.904Z,85.66
2022-10-13T08:09:18.743Z,85.50
2022-10-13T08:10:20.812Z,85.17
2022-10-13T08:11:22.660Z,85.20
2022-10-13T08:12:25.049Z,85.18
2022-10-13T08:13:26.904Z,85.06
2022-10-13T08:14:30.237Z,85.13
2022-10-13T08:15:32.059Z,85.25
2022-10-13T08:16:33.878Z,85.30
2022-10-13T08:17:36.523Z,85.12
2022-10-13T08:18:38.350Z,85.06
2022-10-13T08:19:43.347Z,84.74
2022-10-13T08:20:46.153Z,84.56
2022-10-13T08:22:07.801Z,84.21
2022-10-13T08:23:13.065Z,84.30
2022-10-13T08:24:19.314Z,84.37
2022-10-13T08:25:21.254Z,84.25
2022-10-13T08:26:25.759Z,84.29
2022-10-13T08:27:42.211Z,84.19
2022-10-13T08:29:09.474Z,84.23
2022-10-13T08:30:13.400Z,84.14
2022-10-13T08:31:16.561Z,84.15
2022-10-13T08:32:20.743Z,84.20
2022-10-13T08:33:24.359Z,83.98
2022-10-13T08:34:27.067Z,84.25
2022-10-13T08:35:34.055Z,84.25
2022-10-13T08:36:40.313Z,84.14
2022-10-13T08:37:42.270Z,84.37
2022-10-13T08:38:44.786Z,84.50
2022-10-13T08:39:47.189Z,84.57
2022-10-13T08:40:50.238Z,84.46
2022-10-13T08:41:53.920Z,84.17
2022-10-13T08:43:00.419Z,84.04
2022-10-13T08:44:59.186Z,84.35
2022-10-13T08:45:41.746Z,84.23
2022-10-13T08:46:59.372Z,84.23
2022-10-13T08:48:06.896Z,84.04
2022-10-13T08:49:08.824Z,84.15
2022-10-13T08:50:15.679Z,83.87
2022-10-13T08:51:18.859Z,83.52
2022-10-13T08:52:26.475Z,83.34
2022-10-13T08:53:35.785Z,83.59
2022-10-13T08:54:37.911Z,83.58
2022-10-13T08:55:44.545Z,83.49
2022-10-13T08:56:50.468Z,83.26
2022-10-13T08:57:52.533Z,83.05
2022-10-13T08:59:01.079Z,83.07
2022-10-13T09:00:04.857Z,83.20
2022-10-13T09:01:09.860Z,83.15
2022-10-13T09:02:22.619Z,82.96
2022-10-13T09:03:28.305Z,83.26
2022-10-13T09:04:35.960Z,83.06
2022-10-13T09:05:48.329Z,82.72
2022-10-13T09:06:58.071Z,82.44
2022-10-13T09:07:59.986Z,82.53
2022-10-13T09:09:11.001Z,82.42
2022-10-13T09:10:15.086Z,82.36
2022-10-13T09:11:17.059Z,82.28
2022-10-13T09:12:23.796Z,82.29
2022-10-13T09:13:26.610Z,82.14
2022-10-13T09:14:37.284Z,82.07
2022-10-13T09:15:51.806Z,81.98
2022-10-13T09:16:55.927Z,81.68
2022-10-13T09:18:10.299Z,81.97
2022-10-13T09:19:29.694Z,81.93
2022-10-13T09:20:31.572Z,81.92
2022-10-13T09:21:34.544Z,82.03
2022-10-13T09:22:40.052Z,82.07
2022-10-13T09:23:42.131Z,81.79
2022-10-13T09:24:44.112Z,81.60
2022-10-13T09:25:51.953Z,81.59
2022-10-13T09:27:06.885Z,81.50
2022-10-13T09:28:24.041Z,81.29
2022-10-13T09:29:26.487Z,81.23
2022-10-13T09:30:40.159Z,81.45
2022-10-13T09:31:42.196Z,81.41
2022-10-13T09:32:45.569Z,81.53
2022-10-13T09:33:59.267Z,81.57
2022-10-13T09:35:20.299Z,80.47
2022-10-13T09:36:22.209Z,79.10
2022-10-13T09:37:25.287Z,78.62
2022-10-13T09:38:27.831Z,77.36
2022-10-13T09:39:30.905Z,74.84
2022-10-13T09:40:33.670Z,73.96
2022-10-13T09:41:35.821Z,73.90
2022-10-13T09:42:37.970Z,73.93
2022-10-13T09:43:47.718Z,73.06
2022-10-13T09:45:20.915Z,72.92
2022-10-13T09:46:26.916Z,73.80
2022-10-13T09:47:32.621Z,73.25
2022-10-13T09:48:41.874Z,73.34
2022-10-13T09:49:44.915Z,72.81
2022-10-13T09:50:52.989Z,72.05
2022-10-13T09:52:02.260Z,72.26
2022-10-13T09:53:34.189Z,71.17
2022-10-13T09:54:38.522Z,70.67
2022-10-13T09:55:43.807Z,70.95
2022-10-13T09:56:55.404Z,71.22
2022-10-13T09:58:05.548Z,70.54
2022-10-13T09:59:34.968Z,70.84
2022-10-13T10:00:37.469Z,69.69
2022-10-13T10:01:47.260Z,68.17
2022-10-13T10:03:07.121Z,68.96
2022-10-13T10:04:22.404Z,68.78
2022-10-13T10:05:29.420Z,69.46
2022-10-13T10:06:31.195Z,69.57
2022-10-13T10:07:33.639Z,68.82
2022-10-13T10:09:04.131Z,68.93
2022-10-13T10:10:34.804Z,68.39
2022-10-13T10:11:41.804Z,67.42
2022-10-13T10:12:44.424Z,67.73
2022-10-13T10:13:47.392Z,67.31
2022-10-13T10:14:50.000Z,67.47
2022-10-13T10:16:24.307Z,67.14
2022-10-13T10:17:36.282Z,67.74
2022-10-13T10:19:00.032Z,67.12
2022-10-13T10:20:37.845Z,67.26
2022-10-13T10:21:51.332Z,66.28
2022-10-13T10:23:19.711Z,66.38
2022-10-13T10:24:31.619Z,65.63
2022-10-13T10:25:39.492Z,65.13
2022-10-13T10:27:14.230Z,65.76
2022-10-13T10:28:22.380Z,65.01
2022-10-13T10:29:28.825Z,64.22
2022-10-13T10:30:33.753Z,64.64
2022-10-13T10:31:38.185Z,64.56
2022-10-13T10:32:48.894Z,64.00
2022-10-13T10:34:29.329Z,63.11
2022-10-13T10:35:40.799Z,63.13
2022-10-13T10:37:01.616Z,62.30
2022-10-13T10:38:29.977Z,62.22
2022-10-13T10:39:37.718Z,61.74
2022-10-13T10:40:58.789Z,61.74
2022-10-13T10:42:19.743Z,61.82
2022-10-13T10:43:49.407Z,62.21
2022-10-13T10:44:57.252Z,62.60
2022-10-13T10:46:00.750Z,61.94
2022-10-13T10:47:14.110Z,61.58
2022-10-13T10:48:22.661Z,60.93
2022-10-13T10:49:32.109Z,60.88
2022-10-13T10:50:37.378Z,60.26
2022-10-13T10:51:39.288Z,60.00
2022-10-13T10:53:03.803Z,60.21
2022-10-13T10:54:20.763Z,58.53
2022-10-13T10:55:35.012Z,58.04
2022-10-13T10:56:39.007Z,58.10
2022-10-13T10:58:09.666Z,57.74
2022-10-13T10:59:29.989Z,57.09
2022-10-13T11:00:40.875Z,56.83
2022-10-13T11:01:53.451Z,54.55
2022-10-13T11:03:19.779Z,54.15
2022-10-13T11:04:45.028Z,54.20
2022-10-13T11:06:03.353Z,54.78
2022-10-13T11:07:20.336Z,54.96
2022-10-13T11:08:37.348Z,53.83
2022-10-13T11:09:43.080Z,53.67
2022-10-13T11:10:44.950Z,54.55
2022-10-13T11:11:48.530Z,53.71
2022-10-13T11:12:52.944Z,53.14
2022-10-13T11:14:01.272Z,53.33
2022-10-13T11:15:11.072Z,52.13
2022-10-13T11:16:29.534Z,51.62
2022-10-13T11:17:37.347Z,51.55
2022-10-13T11:18:54.414Z,51.90
2022-10-13T11:20:00.140Z,51.88
2022-10-13T11:21:01.994Z,52.24
2022-10-13T11:22:03.803Z,52.04
2022-10-13T11:23:12.270Z,51.99
2022-10-13T11:24:39.111Z,51.27
2022-10-13T11:25:48.325Z,51.77
2022-10-13T11:26:50.748Z,50.75
2022-10-13T11:27:53.784Z,51.09
2022-10-13T11:28:55.987Z,51.03
2022-10-13T11:30:00.841Z,50.42
2022-10-13T11:31:14.764Z,50.64
2022-10-13T11:32:44.750Z,49.98
2022-10-13T11:34:06.763Z,50.35
2022-10-13T11:35:11.397Z,50.63
2022-10-13T11:36:34.842Z,49.02
2022-10-13T11:38:06.709Z,46.52
2022-10-13T11:39:26.159Z,46.94
2022-10-13T11:40:55.774Z,47.04
2022-10-13T11:42:16.207Z,45.64
2022-10-13T11:43:20.740Z,47.23
2022-10-13T11:44:35.428Z,47.57
2022-10-13T11:45:46.187Z,47.29
2022-10-13T11:46:50.961Z,47.44
2022-10-13T11:48:04.751Z,46.86
2022-10-13T11:49:29.734Z,47.06
2022-10-13T11:50:47.927Z,47.39
2022-10-13T11:51:52.753Z,46.85
2022-10-13T11:53:11.919Z,46.94
2022-10-13T11:54:36.233Z,47.74
2022-10-13T11:55:44.194Z,47.96
2022-10-13T11:56:50.910Z,45.71
2022-10-13T11:58:14.397Z,45.33
2022-10-13T11:59:34.554Z,44.53
2022-10-13T12:00:36.470Z,45.11
2022-10-13T12:01:44.212Z,44.44
2022-10-13T12:02:50.808Z,44.75
2022-10-13T12:03:57.305Z,43.80
2022-10-13T12:05:19.632Z,43.87
2022-10-13T12:06:32.882Z,43.43
2022-10-13T12:07:39.055Z,43.39
2022-10-13T12:08:47.749Z,43.70
2022-10-13T12:09:52.769Z,43.44
2022-10-13T12:10:59.451Z,42.96
2022-10-13T12:12:12.197Z,43.61
2022-10-13T12:13:29.112Z,43.90
2022-10-13T12:14:46.605Z,44.13
2022-10-13T12:15:59.545Z,44.70
2022-10-13T12:17:02.044Z,44.47
2022-10-13T12:18:43.251Z,43.86
2022-10-13T12:19:45.292Z,43.32
2022-10-13T12:21:02.620Z,42.76
2022-10-13T12:22:12.464Z,42.40
2022-10-13T12:23:17.279Z,43.34
2022-10-13T12:24:23.085Z,43.78
2022-10-13T12:25:29.601Z,42.69
2022-10-13T12:26:34.159Z,43.17
2022-10-13T12:27:49.826Z,43.41
2022-10-13T12:28:54.135Z,42.45
2022-10-13T12:29:57.638Z,43.09
2022-10-13T12:31:00.133Z,43.00
2022-10-13T12:32:02.145Z,43.37
2022-10-13T12:33:25.593Z,43.63
2022-10-13T12:34:34.478Z,43.43
2022-10-13T12:35:36.469Z,43.38
2022-10-13T12:36:38.487Z,42.85
2022-10-13T12:37:41.219Z,42.21
2022-10-13T12:38:48.714Z,42.05
2022-10-13T12:39:52.070Z,42.26
2022-10-13T12:40:54.598Z,42.67
2022-10-13T12:42:01.822Z,42.46
2022-10-13T12:43:04.886Z,42.81
2022-10-13T12:44:14.320Z,42.30
2022-10-13T12:45:22.892Z,42.19
2022-10-13T12:46:41.395Z,42.27
2022-10-13T12:48:27.952Z,42.66
2022-10-13T12:49:32.091Z,42.77
2022-10-13T12:50:36.249Z,43.19
2022-10-13T12:51:38.926Z,43.00
2022-10-13T12:52:43.502Z,42.62
2022-10-13T12:53:47.395Z,42.33
2022-10-13T12:54:57.349Z,42.03
2022-10-13T12:56:01.622Z,41.90
2022-10-13T12:57:20.806Z,42.32
2022-10-13T12:58:34.316Z,42.63
2022-10-13T12:59:42.547Z,43.03
2022-10-13T13:00:44.546Z,43.05
2022-10-13T13:01:53.839Z,43.14
2022-10-13T13:03:03.180Z,43.12
2022-10-13T13:04:30.055Z,43.47
2022-10-13T13:05:36.743Z,44.04
2022-10-13T13:06:39.178Z,43.91
2022-10-13T13:07:52.324Z,43.76
2022-10-13T13:09:19.561Z,43.65
2022-10-13T13:10:21.526Z,44.28
2022-10-13T13:11:33.793Z,44.04
2022-10-13T13:12:39.572Z,44.48
2022-10-13T13:13:48.959Z,44.28
2022-10-13T13:14:54.394Z,44.18
2022-10-13T13:16:20.359Z,43.37
2022-10-13T13:18:50.927Z,43.20
2022-10-13T13:19:55.770Z,42.81
2022-10-13T13:20:57.841Z,43.06
2022-10-13T13:22:00.058Z,43.09
2022-10-13T13:23:02.036Z,43.71
2022-10-13T13:24:04.295Z,43.72
2022-10-13T13:25:18.273Z,43.88
2022-10-13T13:26:22.256Z,44.06
2022-10-13T13:27:33.933Z,44.22
2022-10-13T13:28:36.323Z,43.65
2022-10-13T13:29:38.295Z,44.12
2022-10-13T13:30:41.311Z,44.45
2022-10-13T13:31:43.112Z,44.54
2022-10-13T13:32:44.860Z,43.74
2022-10-13T13:33:47.657Z,43.83
2022-10-13T13:34:49.980Z,44.15
2022-10-13T13:35:52.594Z,43.84
2022-10-13T13:36:54.320Z,43.86
2022-10-13T13:37:59.219Z,43.78
2022-10-13T13:39:00.992Z,44.13
2022-10-13T13:40:07.602Z,44.26
2022-10-13T13:41:12.953Z,43.91
2022-10-13T13:42:14.953Z,44.10
2022-10-13T13:43:18.147Z,44.24
2022-10-13T13:44:19.830Z,44.75
2022-10-13T13:45:26.423Z,45.01
2022-10-13T13:46:28.943Z,45.34
2022-10-13T13:47:32.623Z,45.69
2022-10-13T13:48:34.401Z,46.17
2022-10-13T13:49:36.878Z,46.35
2022-10-13T13:50:39.608Z,46.30
2022-10-13T13:51:41.709Z,46.57
2022-10-13T13:52:43.394Z,46.41
2022-10-13T13:53:45.827Z,46.02
2022-10-13T13:54:51.734Z,46.01
2022-10-13T13:55:53.804Z,46.52
2022-10-13T13:56:58.806Z,47.03
2022-10-13T13:58:01.733Z,47.46
2022-10-13T13:59:03.453Z,47.70
2022-10-13T14:00:06.126Z,48.34
2022-10-13T14:01:14.394Z,48.42
2022-10-13T14:02:19.215Z,48.42
2022-10-13T14:03:21.076Z,48.65
2022-10-13T14:04:22.919Z,48.63
2022-10-13T14:05:24.932Z,48.92
2022-10-13T14:06:26.986Z,49.39
2022-10-13T14:07:28.775Z,49.80
2022-10-13T14:08:32.619Z,49.90
2022-10-13T14:09:34.621Z,50.17
2022-10-13T14:10:39.785Z,50.91
2022-10-13T14:11:41.639Z,51.43
2022-10-13T14:12:43.498Z,51.59
2022-10-13T14:13:45.265Z,52.08
2022-10-13T14:14:47.172Z,52.45
2022-10-13T14:15:59.307Z,52.94
2022-10-13T14:17:03.250Z,53.06
2022-10-13T14:18:08.984Z,53.50
2022-10-13T14:19:11.175Z,53.63
2022-10-13T14:20:13.045Z,54.04